sensor_id;sensor_type;location;lat;lon;timestamp;pressure;altitude;pressure_sealevel;temperature;humidity
81397;BME280;70852;49.908;8.126;2023-11-21T00:00:24;99572.66;;;8.93;90.80
81397;BME280;70852;49.908;8.126;2023-11-21T00:02:50;99560.50;;;8.94;91.63
81397;BME280;70852;49.908;8.126;2023-11-21T00:05:16;99569.25;;;8.96;91.91
81397;BME280;70852;49.908;8.126;2023-11-21T00:07:42;99557.56;;;8.91;92.57
81397;BME280;70852;49.908;8.126;2023-11-21T00:10:10;99559.38;;;8.95;92.13
81397;BME280;70852;49.908;8.126;2023-11-21T00:12:42;99553.53;;;8.97;92.16
81397;BME280;70852;49.908;8.126;2023-11-21T00:15:08;99556.00;;;8.90;92.80
81397;BME280;70852;49.908;8.126;2023-11-21T00:17:36;99559.38;;;8.87;92.73
81397;BME280;70852;49.908;8.126;2023-11-21T00:20:05;99558.75;;;8.90;92.68
81397;BME280;70852;49.908;8.126;2023-11-21T00:22:35;99559.53;;;8.90;92.72
81397;BME280;70852;49.908;8.126;2023-11-21T00:25:06;99560.50;;;8.86;93.48
81397;BME280;70852;49.908;8.126;2023-11-21T00:27:36;99555.16;;;8.80;93.25
81397;BME280;70852;49.908;8.126;2023-11-21T00:30:04;99556.97;;;8.76;92.89
81397;BME280;70852;49.908;8.126;2023-11-21T00:32:31;99557.59;;;8.82;92.71
81397;BME280;70852;49.908;8.126;2023-11-21T00:34:56;99566.53;;;8.79;92.75
81397;BME280;70852;49.908;8.126;2023-11-21T00:37:21;99561.31;;;8.86;93.21
81397;BME280;70852;49.908;8.126;2023-11-21T00:39:46;99565.53;;;8.84;93.71
81397;BME280;70852;49.908;8.126;2023-11-21T00:42:14;99562.78;;;8.84;93.65
81397;BME280;70852;49.908;8.126;2023-11-21T00:44:39;99563.56;;;8.93;93.53
81397;BME280;70852;49.908;8.126;2023-11-21T00:47:07;99559.06;;;8.88;92.49
81397;BME280;70852;49.908;8.126;2023-11-21T00:49:35;99567.78;;;8.90;93.03
81397;BME280;70852;49.908;8.126;2023-11-21T00:52:03;99565.84;;;8.91;93.04
81397;BME280;70852;49.908;8.126;2023-11-21T00:54:28;99562.94;;;8.87;93.43
81397;BME280;70852;49.908;8.126;2023-11-21T00:56:59;99558.25;;;8.88;93.28
81397;BME280;70852;49.908;8.126;2023-11-21T00:59:27;99553.69;;;8.92;92.75
81397;BME280;70852;49.908;8.126;2023-11-21T01:01:52;99562.28;;;8.90;92.99
81397;BME280;70852;49.908;8.126;2023-11-21T01:04:19;99566.84;;;8.86;92.74
81397;BME280;70852;49.908;8.126;2023-11-21T01:06:49;99567.94;;;8.94;93.71
81397;BME280;70852;49.908;8.126;2023-11-21T01:09:14;99568.75;;;8.94;93.54
81397;BME280;70852;49.908;8.126;2023-11-21T01:11:40;99562.44;;;8.94;93.29
81397;BME280;70852;49.908;8.126;2023-11-21T01:14:05;99567.13;;;8.93;93.49
81397;BME280;70852;49.908;8.126;2023-11-21T01:16:34;99571.03;;;8.92;93.67
81397;BME280;70852;49.908;8.126;2023-11-21T01:19:04;99572.00;;;8.88;94.28
81397;BME280;70852;49.908;8.126;2023-11-21T01:21:29;99576.41;;;8.89;94.25
81397;BME280;70852;49.908;8.126;2023-11-21T01:23:58;99577.53;;;8.88;94.48
81397;BME280;70852;49.908;8.126;2023-11-21T01:26:23;99580.78;;;8.90;94.11
81397;BME280;70852;49.908;8.126;2023-11-21T01:28:48;99583.34;;;8.86;94.31
81397;BME280;70852;49.908;8.126;2023-11-21T01:31:16;99576.72;;;8.87;94.13
81397;BME280;70852;49.908;8.126;2023-11-21T01:33:41;99574.91;;;8.91;94.19
81397;BME280;70852;49.908;8.126;2023-11-21T01:36:07;99587.41;;;8.89;94.32
81397;BME280;70852;49.908;8.126;2023-11-21T01:38:35;99589.81;;;8.90;94.34
81397;BME280;70852;49.908;8.126;2023-11-21T01:41:00;99586.09;;;8.86;94.33
81397;BME280;70852;49.908;8.126;2023-11-21T01:43:27;99598.44;;;8.89;94.22
81397;BME280;70852;49.908;8.126;2023-11-21T01:45:54;99607.31;;;8.77;94.65
81397;BME280;70852;49.908;8.126;2023-11-21T01:48:22;99609.59;;;8.84;94.60
81397;BME280;70852;49.908;8.126;2023-11-21T01:50:50;99598.88;;;8.91;93.78
81397;BME280;70852;49.908;8.126;2023-11-21T01:53:18;99598.06;;;8.90;94.45
81397;BME280;70852;49.908;8.126;2023-11-21T01:55:45;99589.03;;;8.90;94.31
81397;BME280;70852;49.908;8.126;2023-11-21T01:58:12;99590.31;;;8.92;94.34
81397;BME280;70852;49.908;8.126;2023-11-21T02:00:39;99594.03;;;8.88;94.28
81397;BME280;70852;49.908;8.126;2023-11-21T02:03:04;99615.91;;;8.93;94.13
81397;BME280;70852;49.908;8.126;2023-11-21T02:05:34;99604.06;;;8.92;93.54
81397;BME280;70852;49.908;8.126;2023-11-21T02:07:59;99613.47;;;8.91;93.40
81397;BME280;70852;49.908;8.126;2023-11-21T02:10:25;99612.97;;;8.80;94.07
81397;BME280;70852;49.908;8.126;2023-11-21T02:12:53;99607.00;;;8.87;93.91
81397;BME280;70852;49.908;8.126;2023-11-21T02:15:19;99619.97;;;8.87;93.72
81397;BME280;70852;49.908;8.126;2023-11-21T02:17:49;99614.44;;;8.87;93.45
81397;BME280;70852;49.908;8.126;2023-11-21T02:20:19;99613.97;;;8.85;93.42
81397;BME280;70852;49.908;8.126;2023-11-21T02:22:52;99616.22;;;8.82;93.56
81397;BME280;70852;49.908;8.126;2023-11-21T02:27:54;99619.97;;;8.87;93.70
81397;BME280;70852;49.908;8.126;2023-11-21T02:30:26;99619.31;;;8.90;93.61
81397;BME280;70852;49.908;8.126;2023-11-21T02:32:53;99626.41;;;8.91;93.60
81397;BME280;70852;49.908;8.126;2023-11-21T02:35:22;99624.81;;;8.81;93.84
81397;BME280;70852;49.908;8.126;2023-11-21T02:37:47;99625.94;;;8.80;94.48
81397;BME280;70852;49.908;8.126;2023-11-21T02:40:13;99625.78;;;8.85;94.21
81397;BME280;70852;49.908;8.126;2023-11-21T02:42:45;99629.50;;;8.80;94.00
81397;BME280;70852;49.908;8.126;2023-11-21T02:45:12;99625.47;;;8.78;94.38
81397;BME280;70852;49.908;8.126;2023-11-21T02:47:44;99628.69;;;8.80;93.84
81397;BME280;70852;49.908;8.126;2023-11-21T02:50:12;99626.75;;;8.72;94.39
81397;BME280;70852;49.908;8.126;2023-11-21T02:52:40;99634.69;;;8.73;94.62
81397;BME280;70852;49.908;8.126;2023-11-21T02:55:08;99634.84;;;8.68;94.66
81397;BME280;70852;49.908;8.126;2023-11-21T02:57:35;99640.69;;;8.75;94.29
81397;BME280;70852;49.908;8.126;2023-11-21T03:00:01;99623.34;;;8.75;94.13
81397;BME280;70852;49.908;8.126;2023-11-21T03:02:26;99633.88;;;8.73;94.37
81397;BME280;70852;49.908;8.126;2023-11-21T03:04:51;99630.31;;;8.72;94.62
81397;BME280;70852;49.908;8.126;2023-11-21T03:07:19;99630.81;;;8.74;94.04
81397;BME280;70852;49.908;8.126;2023-11-21T03:09:45;99635.19;;;8.75;94.66
81397;BME280;70852;49.908;8.126;2023-11-21T03:12:11;99633.88;;;8.81;94.48
81397;BME280;70852;49.908;8.126;2023-11-21T03:14:40;99630.97;;;8.78;93.87
81397;BME280;70852;49.908;8.126;2023-11-21T03:17:05;99630.81;;;8.74;94.27
81397;BME280;70852;49.908;8.126;2023-11-21T03:19:31;99628.03;;;8.74;94.17
81397;BME280;70852;49.908;8.126;2023-11-21T03:21:56;99631.63;;;8.75;94.24
81397;BME280;70852;49.908;8.126;2023-11-21T03:24:21;99633.38;;;8.71;93.65
81397;BME280;70852;49.908;8.126;2023-11-21T03:26:48;99634.84;;;8.68;93.84
81397;BME280;70852;49.908;8.126;2023-11-21T03:29:13;99635.00;;;8.63;94.00
81397;BME280;70852;49.908;8.126;2023-11-21T03:31:41;99633.69;;;8.61;94.65
81397;BME280;70852;49.908;8.126;2023-11-21T03:34:10;99643.75;;;8.57;94.91
81397;BME280;70852;49.908;8.126;2023-11-21T03:36:38;99652.00;;;8.57;94.89
81397;BME280;70852;49.908;8.126;2023-11-21T03:39:04;99654.25;;;8.55;95.15
81397;BME280;70852;49.908;8.126;2023-11-21T03:41:32;99654.72;;;8.48;95.38
81397;BME280;70852;49.908;8.126;2023-11-21T03:43:59;99653.13;;;8.47;95.17
81397;BME280;70852;49.908;8.126;2023-11-21T03:46:24;99652.59;;;8.36;95.95
81397;BME280;70852;49.908;8.126;2023-11-21T03:48:49;99654.88;;;8.34;96.07
81397;BME280;70852;49.908;8.126;2023-11-21T03:51:15;99656.13;;;8.37;95.99
81397;BME280;70852;49.908;8.126;2023-11-21T03:53:42;99658.09;;;8.36;95.57
81397;BME280;70852;49.908;8.126;2023-11-21T03:56:14;99668.56;;;8.26;96.36
81397;BME280;70852;49.908;8.126;2023-11-21T03:58:39;99661.13;;;8.26;96.73
81397;BME280;70852;49.908;8.126;2023-11-21T04:01:07;99665.97;;;8.29;96.48
81397;BME280;70852;49.908;8.126;2023-11-21T04:03:34;99669.75;;;8.33;96.08
81397;BME280;70852;49.908;8.126;2023-11-21T04:06:01;99669.53;;;8.30;96.15
81397;BME280;70852;49.908;8.126;2023-11-21T04:08:31;99668.63;;;8.34;95.93
81397;BME280;70852;49.908;8.126;2023-11-21T04:10:56;99672.19;;;8.35;96.00
81397;BME280;70852;49.908;8.126;2023-11-21T04:13:21;99681.25;;;8.35;95.95
81397;BME280;70852;49.908;8.126;2023-11-21T04:15:47;99694.50;;;8.33;96.35
81397;BME280;70852;49.908;8.126;2023-11-21T04:18:12;99690.78;;;8.38;96.40
81397;BME280;70852;49.908;8.126;2023-11-21T04:20:37;99697.78;;;8.44;96.20
81397;BME280;70852;49.908;8.126;2023-11-21T04:23:04;99694.88;;;8.49;95.96
81397;BME280;70852;49.908;8.126;2023-11-21T04:25:30;99705.06;;;8.49;95.40
81397;BME280;70852;49.908;8.126;2023-11-21T04:27:55;99705.56;;;8.51;95.27
81397;BME280;70852;49.908;8.126;2023-11-21T04:30:21;99714.00;;;8.54;95.22
81397;BME280;70852;49.908;8.126;2023-11-21T04:32:48;99706.22;;;8.56;94.94
81397;BME280;70852;49.908;8.126;2023-11-21T04:35:16;99710.59;;;8.57;94.97
81397;BME280;70852;49.908;8.126;2023-11-21T04:37:41;99700.53;;;8.53;94.84
81397;BME280;70852;49.908;8.126;2023-11-21T04:40:10;99710.91;;;8.47;95.11
81397;BME280;70852;49.908;8.126;2023-11-21T04:42:35;99710.41;;;8.45;94.94
81397;BME280;70852;49.908;8.126;2023-11-21T04:45:01;99714.91;;;8.41;94.98
81397;BME280;70852;49.908;8.126;2023-11-21T04:47:30;99714.09;;;8.40;95.14
81397;BME280;70852;49.908;8.126;2023-11-21T04:49:55;99716.72;;;8.46;94.43
81397;BME280;70852;49.908;8.126;2023-11-21T04:52:22;99717.38;;;8.51;94.75
81397;BME280;70852;49.908;8.126;2023-11-21T04:54:48;99719.63;;;8.49;94.29
81397;BME280;70852;49.908;8.126;2023-11-21T04:57:13;99727.56;;;8.51;94.25
81397;BME280;70852;49.908;8.126;2023-11-21T04:59:39;99729.19;;;8.52;94.01
81397;BME280;70852;49.908;8.126;2023-11-21T05:02:04;99729.97;;;8.43;93.68
81397;BME280;70852;49.908;8.126;2023-11-21T05:04:30;99734.06;;;8.46;93.36
81397;BME280;70852;49.908;8.126;2023-11-21T05:06:55;99738.75;;;8.46;94.05
81397;BME280;70852;49.908;8.126;2023-11-21T05:09:24;99744.91;;;8.51;92.78
81397;BME280;70852;49.908;8.126;2023-11-21T05:11:49;99752.97;;;8.48;93.58
81397;BME280;70852;49.908;8.126;2023-11-21T05:14:15;99752.19;;;8.47;93.16
81397;BME280;70852;49.908;8.126;2023-11-21T05:16:40;99748.94;;;8.45;93.85
81397;BME280;70852;49.908;8.126;2023-11-21T05:19:05;99761.84;;;8.36;93.26
81397;BME280;70852;49.908;8.126;2023-11-21T05:21:34;99754.75;;;8.43;94.19
81397;BME280;70852;49.908;8.126;2023-11-21T05:24:03;99765.41;;;8.36;93.59
81397;BME280;70852;49.908;8.126;2023-11-21T05:26:31;99760.94;;;8.27;94.36
81397;BME280;70852;49.908;8.126;2023-11-21T05:28:59;99769.69;;;8.29;94.85
81397;BME280;70852;49.908;8.126;2023-11-21T05:31:24;99761.50;;;8.37;93.93
81397;BME280;70852;49.908;8.126;2023-11-21T05:33:51;99777.06;;;8.42;93.25
81397;BME280;70852;49.908;8.126;2023-11-21T05:36:19;99779.16;;;8.36;94.30
81397;BME280;70852;49.908;8.126;2023-11-21T05:38:44;99778.19;;;8.41;93.70
81397;BME280;70852;49.908;8.126;2023-11-21T05:41:12;99778.53;;;8.48;94.16
81397;BME280;70852;49.908;8.126;2023-11-21T05:43:41;99792.78;;;8.41;94.05
81397;BME280;70852;49.908;8.126;2023-11-21T05:46:13;99789.72;;;8.43;92.98
81397;BME280;70852;49.908;8.126;2023-11-21T05:48:39;99787.97;;;8.47;93.52
81397;BME280;70852;49.908;8.126;2023-11-21T05:51:05;99799.28;;;8.46;92.53
81397;BME280;70852;49.908;8.126;2023-11-21T05:53:38;99798.47;;;8.45;92.79
81397;BME280;70852;49.908;8.126;2023-11-21T05:56:04;99796.16;;;8.38;93.17
81397;BME280;70852;49.908;8.126;2023-11-21T05:58:32;99803.28;;;8.39;93.26
81397;BME280;70852;49.908;8.126;2023-11-21T06:01:05;99797.94;;;8.34;93.55
81397;BME280;70852;49.908;8.126;2023-11-21T06:03:35;99811.72;;;8.43;93.12
81397;BME280;70852;49.908;8.126;2023-11-21T06:06:00;99806.34;;;8.38;92.60
81397;BME280;70852;49.908;8.126;2023-11-21T06:08:31;99811.47;;;8.31;92.60
81397;BME280;70852;49.908;8.126;2023-11-21T06:11:01;99820.69;;;8.26;93.22
81397;BME280;70852;49.908;8.126;2023-11-21T06:13:29;99808.88;;;8.26;93.49
81397;BME280;70852;49.908;8.126;2023-11-21T06:15:59;99818.25;;;8.25;93.16
81397;BME280;70852;49.908;8.126;2023-11-21T06:18:25;99818.56;;;8.23;93.12
81397;BME280;70852;49.908;8.126;2023-11-21T06:20:50;99823.03;;;8.19;93.07
81397;BME280;70852;49.908;8.126;2023-11-21T06:23:20;99836.50;;;8.21;93.88
81397;BME280;70852;49.908;8.126;2023-11-21T06:25:45;99827.63;;;8.24;92.89
81397;BME280;70852;49.908;8.126;2023-11-21T06:28:11;99843.63;;;8.22;92.99
81397;BME280;70852;49.908;8.126;2023-11-21T06:30:36;99837.50;;;8.25;93.14
81397;BME280;70852;49.908;8.126;2023-11-21T06:33:01;99844.63;;;8.26;93.15
81397;BME280;70852;49.908;8.126;2023-11-21T06:35:27;99841.88;;;8.26;93.12
81397;BME280;70852;49.908;8.126;2023-11-21T06:37:55;99840.06;;;8.21;92.86
81397;BME280;70852;49.908;8.126;2023-11-21T06:40:23;99836.19;;;8.22;93.18
81397;BME280;70852;49.908;8.126;2023-11-21T06:42:48;99844.28;;;8.27;93.10
81397;BME280;70852;49.908;8.126;2023-11-21T06:45:14;99851.41;;;8.28;92.30
81397;BME280;70852;49.908;8.126;2023-11-21T06:47:40;99850.28;;;8.29;93.53
81397;BME280;70852;49.908;8.126;2023-11-21T06:50:05;99866.28;;;8.27;92.50
81397;BME280;70852;49.908;8.126;2023-11-21T06:52:34;99870.09;;;8.31;92.03
81397;BME280;70852;49.908;8.126;2023-11-21T06:55:00;99879.56;;;8.25;92.03
81397;BME280;70852;49.908;8.126;2023-11-21T06:57:27;99875.28;;;8.33;92.50
81397;BME280;70852;49.908;8.126;2023-11-21T06:59:53;99886.88;;;8.30;92.92
81397;BME280;70852;49.908;8.126;2023-11-21T07:02:18;99890.44;;;8.30;92.84
81397;BME280;70852;49.908;8.126;2023-11-21T07:04:46;99894.16;;;8.26;92.61
81397;BME280;70852;49.908;8.126;2023-11-21T07:07:11;99894.63;;;8.28;93.87
81397;BME280;70852;49.908;8.126;2023-11-21T07:09:39;99893.09;;;8.35;92.58
81397;BME280;70852;49.908;8.126;2023-11-21T07:12:05;99897.78;;;8.35;92.63
81397;BME280;70852;49.908;8.126;2023-11-21T07:14:34;99908.00;;;8.34;93.08
81397;BME280;70852;49.908;8.126;2023-11-21T07:17:02;99910.44;;;8.36;92.69
81397;BME280;70852;49.908;8.126;2023-11-21T07:19:28;99918.69;;;8.36;92.72
81397;BME280;70852;49.908;8.126;2023-11-21T07:21:56;99926.19;;;8.44;92.43
81397;BME280;70852;49.908;8.126;2023-11-21T07:24:21;99924.75;;;8.47;92.47
81397;BME280;70852;49.908;8.126;2023-11-21T07:26:48;99926.69;;;8.46;92.31
81397;BME280;70852;49.908;8.126;2023-11-21T07:29:17;99932.34;;;8.50;92.17
81397;BME280;70852;49.908;8.126;2023-11-21T07:31:45;99941.72;;;8.49;92.93
81397;BME280;70852;49.908;8.126;2023-11-21T07:34:12;99935.31;;;8.53;93.16
81397;BME280;70852;49.908;8.126;2023-11-21T07:36:41;99937.25;;;8.53;92.01
81397;BME280;70852;49.908;8.126;2023-11-21T07:39:06;99944.72;;;8.61;92.38
81397;BME280;70852;49.908;8.126;2023-11-21T07:41:31;99940.50;;;8.55;92.72
81397;BME280;70852;49.908;8.126;2023-11-21T07:43:57;99949.41;;;8.60;92.66
81397;BME280;70852;49.908;8.126;2023-11-21T07:46:26;99948.81;;;8.63;92.50
81397;BME280;70852;49.908;8.126;2023-11-21T07:48:52;99956.44;;;8.66;92.01
81397;BME280;70852;49.908;8.126;2023-11-21T07:51:18;99965.50;;;8.67;92.12
81397;BME280;70852;49.908;8.126;2023-11-21T07:53:47;99963.13;;;8.74;91.67
81397;BME280;70852;49.908;8.126;2023-11-21T07:56:15;99965.25;;;8.77;91.64
81397;BME280;70852;49.908;8.126;2023-11-21T07:58:40;99973.00;;;8.75;92.04
81397;BME280;70852;49.908;8.126;2023-11-21T08:01:05;99979.31;;;8.75;92.59
81397;BME280;70852;49.908;8.126;2023-11-21T08:03:33;99970.00;;;8.85;90.54
81397;BME280;70852;49.908;8.126;2023-11-21T08:05:59;99978.44;;;8.89;91.72
81397;BME280;70852;49.908;8.126;2023-11-21T08:08:25;99983.50;;;8.95;91.37
81397;BME280;70852;49.908;8.126;2023-11-21T08:10:53;99983.19;;;8.97;90.34
81397;BME280;70852;49.908;8.126;2023-11-21T08:13:27;99979.84;;;9.08;90.33
81397;BME280;70852;49.908;8.126;2023-11-21T08:15:57;99985.19;;;9.13;89.40
81397;BME280;70852;49.908;8.126;2023-11-21T08:18:28;99990.66;;;9.05;91.34
81397;BME280;70852;49.908;8.126;2023-11-21T08:20:57;99996.13;;;8.96;90.76
81397;BME280;70852;49.908;8.126;2023-11-21T08:23:23;99989.72;;;9.09;89.78
81397;BME280;70852;49.908;8.126;2023-11-21T08:25:50;99993.97;;;9.15;88.68
81397;BME280;70852;49.908;8.126;2023-11-21T08:28:16;100002.53;;;9.14;90.37
81397;BME280;70852;49.908;8.126;2023-11-21T08:30:41;100000.59;;;9.14;89.51
81397;BME280;70852;49.908;8.126;2023-11-21T08:33:07;99993.69;;;9.26;90.59
81397;BME280;70852;49.908;8.126;2023-11-21T08:35:36;100008.88;;;9.14;90.38
81397;BME280;70852;49.908;8.126;2023-11-21T08:38:02;100005.03;;;9.24;90.11
81397;BME280;70852;49.908;8.126;2023-11-21T08:40:28;100009.50;;;9.42;87.54
81397;BME280;70852;49.908;8.126;2023-11-21T08:42:56;100012.38;;;9.37;88.98
81397;BME280;70852;49.908;8.126;2023-11-21T08:45:24;100025.66;;;9.35;88.53
81397;BME280;70852;49.908;8.126;2023-11-21T08:47:52;100026.78;;;9.34;89.20
81397;BME280;70852;49.908;8.126;2023-11-21T08:50:17;100026.16;;;9.37;88.38
81397;BME280;70852;49.908;8.126;2023-11-21T08:52:46;100034.09;;;9.30;87.83
81397;BME280;70852;49.908;8.126;2023-11-21T08:55:14;100044.13;;;9.35;86.92
81397;BME280;70852;49.908;8.126;2023-11-21T08:57:44;100034.72;;;9.27;87.79
81397;BME280;70852;49.908;8.126;2023-11-21T09:00:13;100037.28;;;9.24;88.02
81397;BME280;70852;49.908;8.126;2023-11-21T09:02:44;100031.59;;;9.20;87.84
81397;BME280;70852;49.908;8.126;2023-11-21T09:05:10;100037.47;;;9.27;86.84
81397;BME280;70852;49.908;8.126;2023-11-21T09:07:40;100041.66;;;9.25;87.54
81397;BME280;70852;49.908;8.126;2023-11-21T09:10:11;100044.25;;;9.21;88.63
81397;BME280;70852;49.908;8.126;2023-11-21T09:12:39;100054.13;;;9.22;89.23
81397;BME280;70852;49.908;8.126;2023-11-21T09:15:11;100051.50;;;9.17;88.61
81397;BME280;70852;49.908;8.126;2023-11-21T09:17:39;100047.19;;;9.33;88.96
81397;BME280;70852;49.908;8.126;2023-11-21T09:20:05;100062.84;;;9.46;88.33
81397;BME280;70852;49.908;8.126;2023-11-21T09:22:32;100058.97;;;9.47;87.86
81397;BME280;70852;49.908;8.126;2023-11-21T09:24:57;100068.84;;;9.48;87.61
81397;BME280;70852;49.908;8.126;2023-11-21T09:27:27;100065.63;;;9.55;87.37
81397;BME280;70852;49.908;8.126;2023-11-21T09:29:52;100064.53;;;9.65;86.52
81397;BME280;70852;49.908;8.126;2023-11-21T09:32:21;100069.28;;;9.73;88.77
81397;BME280;70852;49.908;8.126;2023-11-21T09:34:49;100072.41;;;9.80;86.91
81397;BME280;70852;49.908;8.126;2023-11-21T09:37:17;100073.94;;;10.03;86.99
81397;BME280;70852;49.908;8.126;2023-11-21T09:39:42;100068.72;;;10.02;85.46
81397;BME280;70852;49.908;8.126;2023-11-21T09:42:12;100079.06;;;10.27;84.47
81397;BME280;70852;49.908;8.126;2023-11-21T09:47:23;100081.00;;;10.44;83.22
81397;BME280;70852;49.908;8.126;2023-11-21T09:49:49;100095.63;;;10.44;83.94
81397;BME280;70852;49.908;8.126;2023-11-21T09:52:25;100090.59;;;10.38;84.25
81397;BME280;70852;49.908;8.126;2023-11-21T09:54:52;100093.50;;;10.50;84.27
81397;BME280;70852;49.908;8.126;2023-11-21T09:57:24;100104.09;;;10.56;83.07
81397;BME280;70852;49.908;8.126;2023-11-21T09:59:54;100102.31;;;10.69;83.62
81397;BME280;70852;49.908;8.126;2023-11-21T10:02:25;100103.09;;;10.44;84.75
81397;BME280;70852;49.908;8.126;2023-11-21T10:04:52;100108.94;;;10.51;82.84
81397;BME280;70852;49.908;8.126;2023-11-21T10:07:19;100111.09;;;10.80;82.89
81397;BME280;70852;49.908;8.126;2023-11-21T10:09:47;100116.25;;;11.16;82.56
81397;BME280;70852;49.908;8.126;2023-11-21T10:12:15;100119.03;;;11.33;80.70
81397;BME280;70852;49.908;8.126;2023-11-21T10:14:42;100123.03;;;11.53;80.68
81397;BME280;70852;49.908;8.126;2023-11-21T10:17:10;100136.75;;;11.96;76.90
81397;BME280;70852;49.908;8.126;2023-11-21T10:19:38;100131.81;;;12.39;77.33
81397;BME280;70852;49.908;8.126;2023-11-21T10:22:07;100135.34;;;12.49;75.56
81397;BME280;70852;49.908;8.126;2023-11-21T10:24:33;100133.84;;;12.51;76.00
81397;BME280;70852;49.908;8.126;2023-11-21T10:26:59;100138.94;;;12.91;73.25
81397;BME280;70852;49.908;8.126;2023-11-21T10:29:29;100142.50;;;14.47;67.69
81397;BME280;70852;49.908;8.126;2023-11-21T10:31:55;100136.13;;;15.27;65.71
81397;BME280;70852;49.908;8.126;2023-11-21T10:34:22;100141.06;;;14.17;67.96
81397;BME280;70852;49.908;8.126;2023-11-21T10:36:48;100141.41;;;16.03;60.98
81397;BME280;70852;49.908;8.126;2023-11-21T10:39:17;100144.81;;;17.33;57.79
81397;BME280;70852;49.908;8.126;2023-11-21T10:41:51;100143.19;;;17.32;56.22
81397;BME280;70852;49.908;8.126;2023-11-21T10:44:17;100147.59;;;17.95;57.28
81397;BME280;70852;49.908;8.126;2023-11-21T10:46:53;100148.19;;;18.79;54.47
81397;BME280;70852;49.908;8.126;2023-11-21T10:49:22;100144.22;;;20.18;48.79
81397;BME280;70852;49.908;8.126;2023-11-21T10:51:50;100147.41;;;18.56;52.87
81397;BME280;70852;49.908;8.126;2023-11-21T10:54:23;100139.59;;;16.93;55.24
81397;BME280;70852;49.908;8.126;2023-11-21T10:56:53;100146.19;;;15.87;59.81
81397;BME280;70852;49.908;8.126;2023-11-21T10:59:26;100139.91;;;15.47;60.44
81397;BME280;70852;49.908;8.126;2023-11-21T11:02:01;100148.94;;;16.50;59.34
81397;BME280;70852;49.908;8.126;2023-11-21T11:04:28;100141.28;;;16.47;58.00
81397;BME280;70852;49.908;8.126;2023-11-21T11:07:03;100146.25;;;15.91;58.08
81397;BME280;70852;49.908;8.126;2023-11-21T11:09:34;100149.53;;;15.09;60.13
81397;BME280;70852;49.908;8.126;2023-11-21T11:12:02;100146.13;;;15.16;59.73
81397;BME280;70852;49.908;8.126;2023-11-21T11:14:30;100142.63;;;15.31;59.21
81397;BME280;70852;49.908;8.126;2023-11-21T11:17:00;100145.75;;;15.01;60.81
81397;BME280;70852;49.908;8.126;2023-11-21T11:19:29;100149.03;;;14.79;60.18
81397;BME280;70852;49.908;8.126;2023-11-21T11:27:30;100138.41;;;14.69;65.06
81397;BME280;70852;49.908;8.126;2023-11-21T11:30:30;100133.88;;;14.77;64.31
81397;BME280;70852;49.908;8.126;2023-11-21T11:36:09;100136.47;;;14.57;61.60
81397;BME280;70852;49.908;8.126;2023-11-21T11:38:38;100136.47;;;14.57;63.54
81397;BME280;70852;49.908;8.126;2023-11-21T11:41:05;100141.66;;;14.71;64.02
81397;BME280;70852;49.908;8.126;2023-11-21T11:43:34;100134.63;;;14.49;61.77
81397;BME280;70852;49.908;8.126;2023-11-21T11:46:09;100133.19;;;13.95;61.15
81397;BME280;70852;49.908;8.126;2023-11-21T11:48:37;100126.44;;;13.71;63.77
81397;BME280;70852;49.908;8.126;2023-11-21T11:51:11;100127.03;;;13.89;65.11
81397;BME280;70852;49.908;8.126;2023-11-21T11:53:40;100132.00;;;13.71;64.88
81397;BME280;70852;49.908;8.126;2023-11-21T11:56:22;100135.38;;;14.01;65.27
81397;BME280;70852;49.908;8.126;2023-11-21T11:58:49;100127.63;;;13.95;64.49
81397;BME280;70852;49.908;8.126;2023-11-21T12:01:22;100133.31;;;14.10;62.91
81397;BME280;70852;49.908;8.126;2023-11-21T12:06:43;100139.34;;;14.24;62.96
81397;BME280;70852;49.908;8.126;2023-11-21T12:09:17;100137.59;;;14.56;62.83
81397;BME280;70852;49.908;8.126;2023-11-21T12:11:46;100141.41;;;14.64;61.06
81397;BME280;70852;49.908;8.126;2023-11-21T12:14:13;100145.00;;;14.64;61.55
81397;BME280;70852;49.908;8.126;2023-11-21T12:16:39;100140.66;;;14.51;64.03
81397;BME280;70852;49.908;8.126;2023-11-21T12:19:05;100152.19;;;14.53;62.22
81397;BME280;70852;49.908;8.126;2023-11-21T12:21:30;100147.91;;;14.19;63.61
81397;BME280;70852;49.908;8.126;2023-11-21T12:24:02;100153.41;;;13.83;63.99
81397;BME280;70852;49.908;8.126;2023-11-21T12:26:33;100156.88;;;13.47;64.72
81397;BME280;70852;49.908;8.126;2023-11-21T12:29:01;100165.88;;;13.32;65.36
81397;BME280;70852;49.908;8.126;2023-11-21T12:31:28;100159.56;;;13.02;66.79
81397;BME280;70852;49.908;8.126;2023-11-21T12:33:54;100166.94;;;12.98;67.65
81397;BME280;70852;49.908;8.126;2023-11-21T12:36:24;100174.41;;;12.76;68.12
81397;BME280;70852;49.908;8.126;2023-11-21T12:38:50;100169.09;;;12.42;69.07
81397;BME280;70852;49.908;8.126;2023-11-21T12:41:18;100176.78;;;12.36;69.37
81397;BME280;70852;49.908;8.126;2023-11-21T12:43:44;100172.94;;;12.20;70.25
81397;BME280;70852;49.908;8.126;2023-11-21T12:46:14;100181.44;;;12.15;69.58
81397;BME280;70852;49.908;8.126;2023-11-21T12:48:46;100185.88;;;12.07;72.57
81397;BME280;70852;49.908;8.126;2023-11-21T12:51:12;100181.06;;;11.79;71.55
81397;BME280;70852;49.908;8.126;2023-11-21T12:53:39;100181.75;;;11.76;70.51
81397;BME280;70852;49.908;8.126;2023-11-21T12:56:10;100178.47;;;11.82;71.79
81397;BME280;70852;49.908;8.126;2023-11-21T12:58:38;100182.53;;;11.76;71.46
81397;BME280;70852;49.908;8.126;2023-11-21T13:01:08;100190.69;;;11.55;70.84
81397;BME280;70852;49.908;8.126;2023-11-21T13:03:39;100181.94;;;11.36;70.96
81397;BME280;70852;49.908;8.126;2023-11-21T13:06:08;100184.06;;;11.22;71.63
81397;BME280;70852;49.908;8.126;2023-11-21T13:08:35;100190.41;;;11.31;71.82
81397;BME280;70852;49.908;8.126;2023-11-21T13:11:06;100189.59;;;11.22;71.33
81397;BME280;70852;49.908;8.126;2023-11-21T13:13:32;100198.06;;;11.08;71.57
81397;BME280;70852;49.908;8.126;2023-11-21T13:16:00;100200.81;;;10.91;72.46
81397;BME280;70852;49.908;8.126;2023-11-21T13:18:28;100199.00;;;10.95;71.95
81397;BME280;70852;49.908;8.126;2023-11-21T13:20:55;100199.00;;;10.86;72.82
81397;BME280;70852;49.908;8.126;2023-11-21T13:23:20;100212.50;;;10.88;72.97